sensor_id;sensor_type;location;lat;lon;timestamp;P1;durP1;ratioP1;P2;durP2;ratioP2
17714;SDS011;8977;50.902;4.314;2023-03-11T00:02:15;7.53;;;2.93;;
17714;SDS011;8977;50.902;4.314;2023-03-11T00:04:43;5.33;;;3.03;;
17714;SDS011;8977;50.902;4.314;2023-03-11T00:07:10;6.57;;;2.70;;
17714;SDS011;8977;50.902;4.314;2023-03-11T00:09:37;4.73;;;2.50;;
17714;SDS011;8977;50.902;4.314;2023-03-11T00:12:04;7.43;;;2.50;;
17714;SDS011;8977;50.902;4.314;2023-03-11T00:14:31;7.23;;;2.60;;
17714;SDS011;8977;50.902;4.314;2023-03-11T00:16:58;6.17;;;2.73;;
17714;SDS011;8977;50.902;4.314;2023-03-11T00:19:27;5.83;;;2.60;;
17714;SDS011;8977;50.902;4.314;2023-03-11T00:21:53;6.00;;;2.37;;
17714;SDS011;8977;50.902;4.314;2023-03-11T00:24:22;5.40;;;2.50;;
17714;SDS011;8977;50.902;4.314;2023-03-11T00:26:49;4.73;;;2.53;;
17714;SDS011;8977;50.902;4.314;2023-03-11T00:29:16;3.20;;;2.60;;
17714;SDS011;8977;50.902;4.314;2023-03-11T00:31:43;4.60;;;2.37;;
17714;SDS011;8977;50.902;4.314;2023-03-11T00:34:10;4.73;;;1.90;;
17714;SDS011;8977;50.902;4.314;2023-03-11T00:36:38;4.03;;;2.20;;
17714;SDS011;8977;50.902;4.314;2023-03-11T00:39:06;5.27;;;2.13;;
17714;SDS011;8977;50.902;4.314;2023-03-11T00:41:35;3.20;;;2.30;;
17714;SDS011;8977;50.902;4.314;2023-03-11T00:44:02;7.60;;;2.33;;
17714;SDS011;8977;50.902;4.314;2023-03-11T00:46:29;7.30;;;2.27;;
17714;SDS011;8977;50.902;4.314;2023-03-11T00:48:56;4.57;;;1.90;;
17714;SDS011;8977;50.902;4.314;2023-03-11T00:51:23;4.43;;;2.13;;
17714;SDS011;8977;50.902;4.314;2023-03-11T00:53:51;6.37;;;2.23;;
17714;SDS011;8977;50.902;4.314;2023-03-11T00:56:18;4.37;;;1.87;;
17714;SDS011;8977;50.902;4.314;2023-03-11T00:58:45;6.80;;;2.10;;
17714;SDS011;8977;50.902;4.314;2023-03-11T01:01:13;3.60;;;2.00;;
17714;SDS011;8977;50.902;4.314;2023-03-11T01:03:41;4.00;;;1.70;;
17714;SDS011;8977;50.902;4.314;2023-03-11T01:06:08;4.83;;;2.03;;
17714;SDS011;8977;50.902;4.314;2023-03-11T01:08:35;4.33;;;1.90;;
17714;SDS011;8977;50.902;4.314;2023-03-11T01:11:04;4.30;;;2.03;;
17714;SDS011;8977;50.902;4.314;2023-03-11T01:13:32;4.57;;;2.10;;
17714;SDS011;8977;50.902;4.314;2023-03-11T01:15:59;4.23;;;2.10;;
17714;SDS011;8977;50.902;4.314;2023-03-11T01:18:26;4.03;;;1.90;;
17714;SDS011;8977;50.902;4.314;2023-03-11T01:20:53;5.57;;;2.03;;
17714;SDS011;8977;50.902;4.314;2023-03-11T01:23:20;8.53;;;1.93;;
17714;SDS011;8977;50.902;4.314;2023-03-11T01:25:47;7.23;;;2.00;;
17714;SDS011;8977;50.902;4.314;2023-03-11T01:28:15;4.43;;;1.70;;
17714;SDS011;8977;50.902;4.314;2023-03-11T01:30:42;5.27;;;2.00;;
17714;SDS011;8977;50.902;4.314;2023-03-11T01:33:12;7.03;;;3.47;;
17714;SDS011;8977;50.902;4.314;2023-03-11T01:35:41;6.50;;;1.90;;
17714;SDS011;8977;50.902;4.314;2023-03-11T01:38:08;7.93;;;2.13;;
17714;SDS011;8977;50.902;4.314;2023-03-11T01:40:36;6.07;;;2.40;;
17714;SDS011;8977;50.902;4.314;2023-03-11T01:43:33;5.50;;;2.10;;
17714;SDS011;8977;50.902;4.314;2023-03-11T01:46:07;4.97;;;2.23;;
17714;SDS011;8977;50.902;4.314;2023-03-11T01:48:36;5.73;;;2.40;;
17714;SDS011;8977;50.902;4.314;2023-03-11T01:51:04;3.43;;;2.40;;
17714;SDS011;8977;50.902;4.314;2023-03-11T01:53:32;6.13;;;2.10;;
17714;SDS011;8977;50.902;4.314;2023-03-11T01:56:00;2.93;;;2.10;;
17714;SDS011;8977;50.902;4.314;2023-03-11T01:58:29;5.60;;;2.83;;
17714;SDS011;8977;50.902;4.314;2023-03-11T02:01:01;3.40;;;2.70;;
17714;SDS011;8977;50.902;4.314;2023-03-11T02:03:30;4.63;;;2.30;;
17714;SDS011;8977;50.902;4.314;2023-03-11T02:05:59;6.20;;;2.70;;
17714;SDS011;8977;50.902;4.314;2023-03-11T02:08:27;5.53;;;2.40;;
17714;SDS011;8977;50.902;4.314;2023-03-11T02:10:58;5.70;;;2.40;;
17714;SDS011;8977;50.902;4.314;2023-03-11T02:13:26;4.80;;;2.60;;
17714;SDS011;8977;50.902;4.314;2023-03-11T02:15:53;5.30;;;2.50;;
17714;SDS011;8977;50.902;4.314;2023-03-11T02:18:22;6.67;;;3.10;;
17714;SDS011;8977;50.902;4.314;2023-03-11T02:20:50;5.27;;;2.70;;
17714;SDS011;8977;50.902;4.314;2023-03-11T02:23:23;8.07;;;2.70;;
17714;SDS011;8977;50.902;4.314;2023-03-11T02:25:57;8.50;;;2.60;;
17714;SDS011;8977;50.902;4.314;2023-03-11T02:28:29;4.77;;;2.67;;
17714;SDS011;8977;50.902;4.314;2023-03-11T02:30:59;4.20;;;2.60;;
17714;SDS011;8977;50.902;4.314;2023-03-11T02:33:27;5.70;;;2.70;;
17714;SDS011;8977;50.902;4.314;2023-03-11T02:35:57;7.27;;;3.00;;
17714;SDS011;8977;50.902;4.314;2023-03-11T02:38:24;5.40;;;2.67;;
17714;SDS011;8977;50.902;4.314;2023-03-11T02:40:52;5.80;;;3.30;;
17714;SDS011;8977;50.902;4.314;2023-03-11T02:43:25;4.63;;;3.10;;
17714;SDS011;8977;50.902;4.314;2023-03-11T02:45:58;5.90;;;3.00;;
17714;SDS011;8977;50.902;4.314;2023-03-11T02:48:26;7.10;;;3.00;;
17714;SDS011;8977;50.902;4.314;2023-03-11T02:50:55;5.23;;;3.07;;
17714;SDS011;8977;50.902;4.314;2023-03-11T02:53:23;7.23;;;2.60;;
17714;SDS011;8977;50.902;4.314;2023-03-11T02:55:51;7.40;;;3.57;;
17714;SDS011;8977;50.902;4.314;2023-03-11T02:58:18;7.07;;;2.60;;
17714;SDS011;8977;50.902;4.314;2023-03-11T03:00:46;5.97;;;2.90;;
17714;SDS011;8977;50.902;4.314;2023-03-11T03:03:13;7.87;;;2.93;;
17714;SDS011;8977;50.902;4.314;2023-03-11T03:05:40;6.37;;;2.80;;
17714;SDS011;8977;50.902;4.314;2023-03-11T03:08:07;7.73;;;3.33;;
17714;SDS011;8977;50.902;4.314;2023-03-11T03:10:34;5.77;;;2.87;;
17714;SDS011;8977;50.902;4.314;2023-03-11T03:13:01;5.77;;;2.60;;
17714;SDS011;8977;50.902;4.314;2023-03-11T03:15:27;11.07;;;3.67;;
17714;SDS011;8977;50.902;4.314;2023-03-11T03:17:56;4.40;;;2.83;;
17714;SDS011;8977;50.902;4.314;2023-03-11T03:20:23;8.10;;;2.60;;
17714;SDS011;8977;50.902;4.314;2023-03-11T03:22:50;6.37;;;2.97;;
17714;SDS011;8977;50.902;4.314;2023-03-11T03:25:18;8.60;;;3.47;;
17714;SDS011;8977;50.902;4.314;2023-03-11T03:27:44;6.30;;;2.80;;
17714;SDS011;8977;50.902;4.314;2023-03-11T03:30:12;4.67;;;2.70;;
17714;SDS011;8977;50.902;4.314;2023-03-11T03:32:39;9.80;;;3.10;;
17714;SDS011;8977;50.902;4.314;2023-03-11T03:35:08;6.57;;;3.00;;
17714;SDS011;8977;50.902;4.314;2023-03-11T03:37:36;5.97;;;2.30;;
17714;SDS011;8977;50.902;4.314;2023-03-11T03:40:04;4.63;;;2.77;;
17714;SDS011;8977;50.902;4.314;2023-03-11T03:42:32;5.93;;;2.90;;
17714;SDS011;8977;50.902;4.314;2023-03-11T03:44:59;7.40;;;3.00;;
17714;SDS011;8977;50.902;4.314;2023-03-11T03:47:26;7.43;;;3.00;;
17714;SDS011;8977;50.902;4.314;2023-03-11T03:49:53;5.57;;;2.93;;
17714;SDS011;8977;50.902;4.314;2023-03-11T03:52:21;8.50;;;2.67;;
17714;SDS011;8977;50.902;4.314;2023-03-11T03:54:48;4.60;;;2.80;;
17714;SDS011;8977;50.902;4.314;2023-03-11T03:57:16;6.57;;;3.03;;
17714;SDS011;8977;50.902;4.314;2023-03-11T03:59:43;5.87;;;3.00;;
17714;SDS011;8977;50.902;4.314;2023-03-11T04:02:10;4.80;;;3.03;;
17714;SDS011;8977;50.902;4.314;2023-03-11T04:04:36;6.03;;;3.00;;
17714;SDS011;8977;50.902;4.314;2023-03-11T04:07:03;4.00;;;2.70;;
17714;SDS011;8977;50.902;4.314;2023-03-11T04:09:32;5.60;;;2.87;;
17714;SDS011;8977;50.902;4.314;2023-03-11T04:11:59;7.87;;;3.77;;
17714;SDS011;8977;50.902;4.314;2023-03-11T04:14:26;5.33;;;2.80;;
17714;SDS011;8977;50.902;4.314;2023-03-11T04:16:53;6.87;;;3.10;;
17714;SDS011;8977;50.902;4.314;2023-03-11T04:19:20;6.80;;;3.57;;
17714;SDS011;8977;50.902;4.314;2023-03-11T04:21:46;7.80;;;3.40;;
17714;SDS011;8977;50.902;4.314;2023-03-11T04:24:15;5.63;;;3.20;;
17714;SDS011;8977;50.902;4.314;2023-03-11T04:26:44;4.70;;;3.00;;
17714;SDS011;8977;50.902;4.314;2023-03-11T04:29:11;11.47;;;3.80;;
17714;SDS011;8977;50.902;4.314;2023-03-11T04:31:37;6.80;;;3.10;;
17714;SDS011;8977;50.902;4.314;2023-03-11T04:34:04;7.43;;;3.20;;
17714;SDS011;8977;50.902;4.314;2023-03-11T04:36:32;6.37;;;3.20;;
17714;SDS011;8977;50.902;4.314;2023-03-11T04:38:59;6.63;;;2.90;;
17714;SDS011;8977;50.902;4.314;2023-03-11T04:41:26;5.90;;;3.13;;
17714;SDS011;8977;50.902;4.314;2023-03-11T04:43:54;5.40;;;3.10;;
17714;SDS011;8977;50.902;4.314;2023-03-11T04:46:21;8.57;;;3.50;;
17714;SDS011;8977;50.902;4.314;2023-03-11T04:48:48;4.67;;;2.90;;
17714;SDS011;8977;50.902;4.314;2023-03-11T04:51:15;7.27;;;3.53;;
17714;SDS011;8977;50.902;4.314;2023-03-11T04:53:42;5.63;;;3.13;;
17714;SDS011;8977;50.902;4.314;2023-03-11T04:56:09;7.70;;;3.43;;
17714;SDS011;8977;50.902;4.314;2023-03-11T04:58:36;4.83;;;3.20;;
17714;SDS011;8977;50.902;4.314;2023-03-11T05:01:04;8.23;;;3.27;;
17714;SDS011;8977;50.902;4.314;2023-03-11T05:03:31;6.97;;;3.10;;
17714;SDS011;8977;50.902;4.314;2023-03-11T05:05:58;8.30;;;3.57;;
17714;SDS011;8977;50.902;4.314;2023-03-11T05:08:25;7.17;;;3.77;;
17714;SDS011;8977;50.902;4.314;2023-03-11T05:10:52;5.53;;;2.90;;
17714;SDS011;8977;50.902;4.314;2023-03-11T05:13:19;7.57;;;3.20;;
17714;SDS011;8977;50.902;4.314;2023-03-11T05:15:46;8.67;;;3.40;;
17714;SDS011;8977;50.902;4.314;2023-03-11T05:18:15;4.83;;;2.63;;
17714;SDS011;8977;50.902;4.314;2023-03-11T05:20:42;5.90;;;3.20;;
17714;SDS011;8977;50.902;4.314;2023-03-11T05:23:09;6.00;;;2.93;;
17714;SDS011;8977;50.902;4.314;2023-03-11T05:25:36;5.37;;;2.63;;
17714;SDS011;8977;50.902;4.314;2023-03-11T05:28:03;5.37;;;2.80;;
17714;SDS011;8977;50.902;4.314;2023-03-11T05:30:30;5.27;;;3.27;;
17714;SDS011;8977;50.902;4.314;2023-03-11T05:32:57;8.37;;;3.33;;
17714;SDS011;8977;50.902;4.314;2023-03-11T05:35:25;6.27;;;3.13;;
17714;SDS011;8977;50.902;4.314;2023-03-11T05:37:52;6.17;;;3.23;;
17714;SDS011;8977;50.902;4.314;2023-03-11T05:40:20;7.43;;;3.37;;
17714;SDS011;8977;50.902;4.314;2023-03-11T05:42:48;5.77;;;2.90;;
17714;SDS011;8977;50.902;4.314;2023-03-11T05:45:17;6.70;;;2.90;;
17714;SDS011;8977;50.902;4.314;2023-03-11T05:47:43;6.33;;;3.30;;
17714;SDS011;8977;50.902;4.314;2023-03-11T05:50:11;6.13;;;2.80;;
17714;SDS011;8977;50.902;4.314;2023-03-11T05:52:39;4.63;;;3.00;;
17714;SDS011;8977;50.902;4.314;2023-03-11T05:55:06;6.43;;;3.10;;
17714;SDS011;8977;50.902;4.314;2023-03-11T05:57:36;7.67;;;3.50;;
17714;SDS011;8977;50.902;4.314;2023-03-11T06:00:03;5.10;;;2.73;;
17714;SDS011;8977;50.902;4.314;2023-03-11T06:02:31;5.27;;;2.73;;
17714;SDS011;8977;50.902;4.314;2023-03-11T06:04:58;5.60;;;2.80;;
17714;SDS011;8977;50.902;4.314;2023-03-11T06:07:25;7.17;;;3.37;;
17714;SDS011;8977;50.902;4.314;2023-03-11T06:09:53;7.63;;;3.57;;
17714;SDS011;8977;50.902;4.314;2023-03-11T06:12:19;5.17;;;3.13;;
17714;SDS011;8977;50.902;4.314;2023-03-11T06:14:46;5.23;;;3.50;;
17714;SDS011;8977;50.902;4.314;2023-03-11T06:17:13;7.13;;;3.10;;
17714;SDS011;8977;50.902;4.314;2023-03-11T06:19:40;6.83;;;3.17;;
17714;SDS011;8977;50.902;4.314;2023-03-11T06:22:07;6.50;;;3.63;;
17714;SDS011;8977;50.902;4.314;2023-03-11T06:24:34;6.20;;;3.03;;
17714;SDS011;8977;50.902;4.314;2023-03-11T06:27:02;6.47;;;3.70;;
17714;SDS011;8977;50.902;4.314;2023-03-11T06:29:29;5.70;;;3.57;;
17714;SDS011;8977;50.902;4.314;2023-03-11T06:31:56;7.07;;;3.37;;
17714;SDS011;8977;50.902;4.314;2023-03-11T06:34:22;6.13;;;3.20;;
17714;SDS011;8977;50.902;4.314;2023-03-11T06:36:49;7.07;;;3.20;;
17714;SDS011;8977;50.902;4.314;2023-03-11T06:39:16;5.87;;;2.90;;
17714;SDS011;8977;50.902;4.314;2023-03-11T06:41:43;6.43;;;3.40;;
17714;SDS011;8977;50.902;4.314;2023-03-11T06:44:11;6.93;;;3.00;;
17714;SDS011;8977;50.902;4.314;2023-03-11T06:46:38;6.73;;;3.27;;
17714;SDS011;8977;50.902;4.314;2023-03-11T06:49:05;7.47;;;2.83;;
17714;SDS011;8977;50.902;4.314;2023-03-11T06:51:32;8.23;;;3.50;;
17714;SDS011;8977;50.902;4.314;2023-03-11T06:53:59;5.03;;;3.60;;
17714;SDS011;8977;50.902;4.314;2023-03-11T06:56:26;11.23;;;3.60;;
17714;SDS011;8977;50.902;4.314;2023-03-11T06:58:52;4.77;;;3.27;;
17714;SDS011;8977;50.902;4.314;2023-03-11T07:01:21;7.97;;;4.00;;
17714;SDS011;8977;50.902;4.314;2023-03-11T07:03:50;5.33;;;3.53;;
17714;SDS011;8977;50.902;4.314;2023-03-11T07:06:17;7.67;;;4.33;;
17714;SDS011;8977;50.902;4.314;2023-03-11T07:08:46;8.03;;;3.97;;
17714;SDS011;8977;50.902;4.314;2023-03-11T07:11:14;6.40;;;3.80;;
17714;SDS011;8977;50.902;4.314;2023-03-11T07:13:43;8.53;;;4.37;;
17714;SDS011;8977;50.902;4.314;2023-03-11T07:16:11;8.43;;;4.63;;
17714;SDS011;8977;50.902;4.314;2023-03-11T07:18:41;7.13;;;3.80;;
17714;SDS011;8977;50.902;4.314;2023-03-11T07:21:08;6.30;;;3.20;;
17714;SDS011;8977;50.902;4.314;2023-03-11T07:23:37;7.80;;;3.70;;
17714;SDS011;8977;50.902;4.314;2023-03-11T07:26:04;5.50;;;4.00;;
17714;SDS011;8977;50.902;4.314;2023-03-11T07:28:33;6.27;;;4.10;;
17714;SDS011;8977;50.902;4.314;2023-03-11T07:30:59;7.13;;;4.13;;
17714;SDS011;8977;50.902;4.314;2023-03-11T07:33:32;4.60;;;3.67;;
17714;SDS011;8977;50.902;4.314;2023-03-11T07:36:03;10.30;;;3.90;;
17714;SDS011;8977;50.902;4.314;2023-03-11T07:38:30;6.67;;;3.43;;
17714;SDS011;8977;50.902;4.314;2023-03-11T07:40:58;5.87;;;3.53;;
17714;SDS011;8977;50.902;4.314;2023-03-11T07:43:25;5.03;;;3.50;;
17714;SDS011;8977;50.902;4.314;2023-03-11T07:45:52;5.77;;;3.33;;
17714;SDS011;8977;50.902;4.314;2023-03-11T07:48:27;5.63;;;3.10;;
17714;SDS011;8977;50.902;4.314;2023-03-11T07:50:58;6.83;;;3.50;;
17714;SDS011;8977;50.902;4.314;2023-03-11T07:53:27;9.60;;;4.20;;
17714;SDS011;8977;50.902;4.314;2023-03-11T07:55:54;6.17;;;3.47;;
17714;SDS011;8977;50.902;4.314;2023-03-11T07:58:21;9.70;;;4.10;;
17714;SDS011;8977;50.902;4.314;2023-03-11T08:00:48;6.37;;;3.70;;
17714;SDS011;8977;50.902;4.314;2023-03-11T08:03:15;8.53;;;3.57;;
17714;SDS011;8977;50.902;4.314;2023-03-11T08:05:42;8.17;;;3.43;;
17714;SDS011;8977;50.902;4.314;2023-03-11T08:08:10;6.37;;;3.40;;
17714;SDS011;8977;50.902;4.314;2023-03-11T08:10:37;6.83;;;3.57;;
17714;SDS011;8977;50.902;4.314;2023-03-11T08:13:04;6.37;;;3.97;;
17714;SDS011;8977;50.902;4.314;2023-03-11T08:15:31;7.57;;;4.20;;
17714;SDS011;8977;50.902;4.314;2023-03-11T08:17:58;9.43;;;3.97;;
17714;SDS011;8977;50.902;4.314;2023-03-11T08:20:24;5.93;;;3.60;;
17714;SDS011;8977;50.902;4.314;2023-03-11T08:22:51;7.50;;;3.70;;
17714;SDS011;8977;50.902;4.314;2023-03-11T08:25:19;6.33;;;3.27;;
17714;SDS011;8977;50.902;4.314;2023-03-11T08:27:46;9.70;;;4.23;;
17714;SDS011;8977;50.902;4.314;2023-03-11T08:30:13;7.23;;;3.60;;
17714;SDS011;8977;50.902;4.314;2023-03-11T08:32:40;7.60;;;4.43;;
17714;SDS011;8977;50.902;4.314;2023-03-11T08:35:08;5.57;;;4.13;;
17714;SDS011;8977;50.902;4.314;2023-03-11T08:37:35;8.73;;;3.73;;
17714;SDS011;8977;50.902;4.314;2023-03-11T08:40:03;5.47;;;3.97;;
17714;SDS011;8977;50.902;4.314;2023-03-11T08:42:31;11.80;;;4.77;;
17714;SDS011;8977;50.902;4.314;2023-03-11T08:44:58;7.67;;;4.67;;
17714;SDS011;8977;50.902;4.314;2023-03-11T08:47:25;9.73;;;4.50;;
17714;SDS011;8977;50.902;4.314;2023-03-11T08:49:52;8.07;;;4.57;;
17714;SDS011;8977;50.902;4.314;2023-03-11T08:52:19;7.53;;;4.60;;
17714;SDS011;8977;50.902;4.314;2023-03-11T08:54:45;12.30;;;4.53;;
17714;SDS011;8977;50.902;4.314;2023-03-11T08:57:12;10.30;;;4.73;;
17714;SDS011;8977;50.902;4.314;2023-03-11T08:59:40;7.27;;;4.40;;
17714;SDS011;8977;50.902;4.314;2023-03-11T09:02:08;9.03;;;3.83;;
17714;SDS011;8977;50.902;4.314;2023-03-11T09:04:35;4.63;;;3.87;;
17714;SDS011;8977;50.902;4.314;2023-03-11T09:07:02;10.77;;;4.37;;
17714;SDS011;8977;50.902;4.314;2023-03-11T09:09:29;8.23;;;4.40;;
17714;SDS011;8977;50.902;4.314;2023-03-11T09:11:56;8.10;;;3.93;;
17714;SDS011;8977;50.902;4.314;2023-03-11T09:14:22;5.77;;;3.07;;
17714;SDS011;8977;50.902;4.314;2023-03-11T09:16:50;5.90;;;3.00;;
17714;SDS011;8977;50.902;4.314;2023-03-11T09:19:17;5.77;;;2.87;;
17714;SDS011;8977;50.902;4.314;2023-03-11T09:21:44;6.67;;;2.90;;
17714;SDS011;8977;50.902;4.314;2023-03-11T09:24:11;8.70;;;2.93;;
17714;SDS011;8977;50.902;4.314;2023-03-11T09:26:38;3.93;;;2.60;;
17714;SDS011;8977;50.902;4.314;2023-03-11T09:29:05;6.67;;;2.43;;
17714;SDS011;8977;50.902;4.314;2023-03-11T09:31:31;5.70;;;2.50;;
17714;SDS011;8977;50.902;4.314;2023-03-11T09:33:59;5.60;;;2.70;;
17714;SDS011;8977;50.902;4.314;2023-03-11T09:36:26;4.30;;;2.30;;
17714;SDS011;8977;50.902;4.314;2023-03-11T09:38:53;5.97;;;2.03;;
17714;SDS011;8977;50.902;4.314;2023-03-11T09:41:22;6.57;;;1.50;;
17714;SDS011;8977;50.902;4.314;2023-03-11T09:43:57;3.33;;;1.43;;
17714;SDS011;8977;50.902;4.314;2023-03-11T09:46:39;4.70;;;1.67;;
17714;SDS011;8977;50.902;4.314;2023-03-11T09:49:23;4.27;;;1.67;;
17714;SDS011;8977;50.902;4.314;2023-03-11T09:52:00;8.20;;;4.40;;
17714;SDS011;8977;50.902;4.314;2023-03-11T09:54:36;14.03;;;7.17;;
17714;SDS011;8977;50.902;4.314;2023-03-11T09:57:05;6.10;;;1.97;;
17714;SDS011;8977;50.902;4.314;2023-03-11T09:59:37;5.90;;;1.30;;
17714;SDS011;8977;50.902;4.314;2023-03-11T10:02:09;6.60;;;3.17;;
17714;SDS011;8977;50.902;4.314;2023-03-11T10:04:43;7.90;;;3.07;;
17714;SDS011;8977;50.902;4.314;2023-03-11T10:07:16;5.60;;;2.50;;
17714;SDS011;8977;50.902;4.314;2023-03-11T10:09:47;5.63;;;1.73;;
17714;SDS011;8977;50.902;4.314;2023-03-11T10:12:19;3.53;;;1.60;;
17714;SDS011;8977;50.902;4.314;2023-03-11T10:15:00;2.73;;;1.50;;
17714;SDS011;8977;50.902;4.314;2023-03-11T10:17:45;2.80;;;1.70;;
17714;SDS011;8977;50.902;4.314;2023-03-11T10:20:25;6.10;;;1.80;;
17714;SDS011;8977;50.902;4.314;2023-03-11T10:22:57;4.83;;;2.13;;
17714;SDS011;8977;50.902;4.314;2023-03-11T10:25:35;4.13;;;2.20;;
17714;SDS011;8977;50.902;4.314;2023-03-11T10:28:09;4.53;;;1.50;;
17714;SDS011;8977;50.902;4.314;2023-03-11T10:30:39;10.77;;;2.40;;
17714;SDS011;8977;50.902;4.314;2023-03-11T10:33:12;6.10;;;2.80;;
17714;SDS011;8977;50.902;4.314;2023-03-11T10:35:48;4.23;;;2.03;;
17714;SDS011;8977;50.902;4.314;2023-03-11T10:38:19;3.90;;;1.80;;
17714;SDS011;8977;50.902;4.314;2023-03-11T10:40:49;8.00;;;1.67;;
17714;SDS011;8977;50.902;4.314;2023-03-11T10:43:20;8.47;;;2.13;;
17714;SDS011;8977;50.902;4.314;2023-03-11T10:45:51;6.17;;;1.90;;
17714;SDS011;8977;50.902;4.314;2023-03-11T10:48:19;7.33;;;2.13;;
17714;SDS011;8977;50.902;4.314;2023-03-11T10:50:50;4.60;;;1.63;;
17714;SDS011;8977;50.902;4.314;2023-03-11T10:53:22;4.30;;;1.50;;
17714;SDS011;8977;50.902;4.314;2023-03-11T10:55:50;2.80;;;1.43;;
17714;SDS011;8977;50.902;4.314;2023-03-11T10:58:19;2.87;;;1.37;;
17714;SDS011;8977;50.902;4.314;2023-03-11T11:01:02;4.47;;;1.93;;
17714;SDS011;8977;50.902;4.314;2023-03-11T11:03:32;4.53;;;1.37;;
17714;SDS011;8977;50.902;4.314;2023-03-11T11:06:02;4.57;;;2.30;;
17714;SDS011;8977;50.902;4.314;2023-03-11T11:08:31;3.57;;;2.50;;
17714;SDS011;8977;50.902;4.314;2023-03-11T11:10:59;4.43;;;1.90;;
17714;SDS011;8977;50.902;4.314;2023-03-11T11:13:28;3.80;;;1.90;;
17714;SDS011;8977;50.902;4.314;2023-03-11T11:15:57;5.00;;;1.73;;
17714;SDS011;8977;50.902;4.314;2023-03-11T11:18:26;4.67;;;2.47;;
17714;SDS011;8977;50.902;4.314;2023-03-11T11:20:57;3.33;;;1.67;;
17714;SDS011;8977;50.902;4.314;2023-03-11T11:23:31;6.33;;;1.83;;
17714;SDS011;8977;50.902;4.314;2023-03-11T11:26:02;5.97;;;3.60;;
17714;SDS011;8977;50.902;4.314;2023-03-11T11:28:31;4.67;;;1.97;;
17714;SDS011;8977;50.902;4.314;2023-03-11T11:30:59;2.70;;;1.60;;
17714;SDS011;8977;50.902;4.314;2023-03-11T11:33:29;4.37;;;1.50;;
17714;SDS011;8977;50.902;4.314;2023-03-11T11:35:57;4.17;;;1.53;;
17714;SDS011;8977;50.902;4.314;2023-03-11T11:38:27;3.33;;;1.43;;
17714;SDS011;8977;50.902;4.314;2023-03-11T11:40:57;3.83;;;1.63;;
17714;SDS011;8977;50.902;4.314;2023-03-11T11:43:35;4.13;;;1.53;;
17714;SDS011;8977;50.902;4.314;2023-03-11T11:46:10;5.00;;;1.57;;
17714;SDS011;8977;50.902;4.314;2023-03-11T11:48:46;5.20;;;1.27;;
17714;SDS011;8977;50.902;4.314;2023-03-11T11:51:16;4.30;;;1.37;;
17714;SDS011;8977;50.902;4.314;2023-03-11T11:53:48;4.30;;;1.50;;
17714;SDS011;8977;50.902;4.314;2023-03-11T11:56:23;4.07;;;1.40;;
17714;SDS011;8977;50.902;4.314;2023-03-11T11:58:50;4.57;;;1.60;;
17714;SDS011;8977;50.902;4.314;2023-03-11T12:01:20;2.87;;;1.50;;
17714;SDS011;8977;50.902;4.314;2023-03-11T12:04:03;3.60;;;1.40;;
17714;SDS011;8977;50.902;4.314;2023-03-11T12:06:53;3.57;;;1.37;;
17714;SDS011;8977;50.902;4.314;2023-03-11T12:09:44;5.10;;;1.60;;
17714;SDS011;8977;50.902;4.314;2023-03-11T12:12:20;3.53;;;1.37;;
17714;SDS011;8977;50.902;4.314;2023-03-11T12:14:54;4.10;;;1.20;;
17714;SDS011;8977;50.902;4.314;2023-03-11T12:17:27;3.73;;;1.60;;
17714;SDS011;8977;50.902;4.314;2023-03-11T12:19:57;2.90;;;1.20;;
17714;SDS011;8977;50.902;4.314;2023-03-11T12:25:31;6.47;;;1.40;;
17714;SDS011;8977;50.902;4.314;2023-03-11T12:28:08;4.30;;;1.50;;
17714;SDS011;8977;50.902;4.314;2023-03-11T12:30:44;3.30;;;1.43;;
17714;SDS011;8977;50.902;4.314;2023-03-11T12:33:15;4.10;;;1.30;;
17714;SDS011;8977;50.902;4.314;2023-03-11T12:35:49;4.47;;;1.50;;
17714;SDS011;8977;50.902;4.314;2023-03-11T12:38:20;3.80;;;1.47;;
17714;SDS011;8977;50.902;4.314;2023-03-11T12:40:57;4.20;;;1.20;;
17714;SDS011;8977;50.902;4.314;2023-03-11T12:43:59;4.20;;;1.30;;
17714;SDS011;8977;50.902;4.314;2023-03-11T12:49:38;4.47;;;1.47;;
17714;SDS011;8977;50.902;4.314;2023-03-11T12:58:11;2.73;;;1.63;;
17714;SDS011;8977;50.902;4.314;2023-03-11T13:01:12;2.90;;;1.23;;
17714;SDS011;8977;50.902;4.314;2023-03-11T13:03:57;3.30;;;1.40;;
17714;SDS011;8977;50.902;4.314;2023-03-11T13:06:42;3.90;;;1.30;;
17714;SDS011;8977;50.902;4.314;2023-03-11T13:09:27;5.07;;;1.50;;
17714;SDS011;8977;50.902;4.314;2023-03-11T13:11:54;5.30;;;1.60;;
17714;SDS011;8977;50.902;4.314;2023-03-11T13:14:28;4.57;;;1.60;;
17714;SDS011;8977;50.902;4.314;2023-03-11T13:17:15;4.27;;;1.57;;
17714;SDS011;8977;50.902;4.314;2023-03-11T13:19:52;2.37;;;1.33;;
17714;SDS011;8977;50.902;4.314;2023-03-11T13:25:27;3.70;;;1.37;;
17714;SDS011;8977;50.902;4.314;2023-03-11T13:28:10;3.90;;;1.20;;
17714;SDS011;8977;50.902;4.314;2023-03-11T13:30:54;2.53;;;1.30;;
17714;SDS011;8977;50.902;4.314;2023-03-11T13:33:30;2.80;;;1.00;;
17714;SDS011;8977;50.902;4.314;2023-03-11T13:39:12;2.90;;;1.40;;
17714;SDS011;8977;50.902;4.314;2023-03-11T13:41:52;3.47;;;1.50;;
17714;SDS011;8977;50.902;4.314;2023-03-11T13:44:23;3.77;;;1.40;;
17714;SDS011;8977;50.902;4.314;2023-03-11T13:46:56;2.47;;;1.53;;
17714;SDS011;8977;50.902;4.314;2023-03-11T13:49:29;5.97;;;1.57;;
17714;SDS011;8977;50.902;4.314;2023-03-11T13:52:01;2.63;;;1.33;;
17714;SDS011;8977;50.902;4.314;2023-03-11T13:54:34;5.13;;;1.60;;
17714;SDS011;8977;50.902;4.314;2023-03-11T13:57:12;5.33;;;1.70;;
17714;SDS011;8977;50.902;4.314;2023-03-11T13:59:50;3.93;;;1.67;;
17714;SDS011;8977;50.902;4.314;2023-03-11T14:02:19;2.97;;;1.53;;
17714;SDS011;8977;50.902;4.314;2023-03-11T14:04:50;2.97;;;1.60;;
17714;SDS011;8977;50.902;4.314;2023-03-11T14:07:22;3.40;;;1.33;;
17714;SDS011;8977;50.902;4.314;2023-03-11T14:09:51;4.33;;;1.87;;
17714;SDS011;8977;50.902;4.314;2023-03-11T14:13:06;3.10;;;1.60;;
17714;SDS011;8977;50.902;4.314;2023-03-11T14:15:43;3.93;;;1.70;;
17714;SDS011;8977;50.902;4.314;2023-03-11T14:18:26;5.93;;;1.73;;
17714;SDS011;8977;50.902;4.314;2023-03-11T14:20:56;2.47;;;1.20;;
17714;SDS011;8977;50.902;4.314;2023-03-11T14:23:25;2.00;;;1.40;;
17714;SDS011;8977;50.902;4.314;2023-03-11T14:25:58;2.63;;;1.10;;
17714;SDS011;8977;50.902;4.314;2023-03-11T14:28:26;3.53;;;1.10;;
17714;SDS011;8977;50.902;4.314;2023-03-11T14:30:56;2.87;;;1.40;;
17714;SDS011;8977;50.902;4.314;2023-03-11T14:33:24;5.10;;;1.20;;
17714;SDS011;8977;50.902;4.314;2023-03-11T14:35:51;4.07;;;1.20;;
17714;SDS011;8977;50.902;4.314;2023-03-11T14:38:21;2.77;;;1.27;;
17714;SDS011;8977;50.902;4.314;2023-03-11T14:40:49;2.47;;;1.10;;
17714;SDS011;8977;50.902;4.314;2023-03-11T14:43:18;1.90;;;1.30;;
17714;SDS011;8977;50.902;4.314;2023-03-11T14:45:46;1.83;;;1.10;;
17714;SDS011;8977;50.902;4.314;2023-03-11T14:48:16;1.50;;;0.90;;
17714;SDS011;8977;50.902;4.314;2023-03-11T14:50:47;3.00;;;0.97;;
17714;SDS011;8977;50.902;4.314;2023-03-11T14:53:16;3.43;;;1.30;;
17714;SDS011;8977;50.902;4.314;2023-03-11T14:55:49;3.30;;;1.17;;
17714;SDS011;8977;50.902;4.314;2023-03-11T14:58:21;6.63;;;1.53;;
17714;SDS011;8977;50.902;4.314;2023-03-11T15:00:54;1.57;;;1.00;;
17714;SDS011;8977;50.902;4.314;2023-03-11T15:03:26;1.67;;;1.03;;
17714;SDS011;8977;50.902;4.314;2023-03-11T15:05:56;1.03;;;0.90;;
17714;SDS011;8977;50.902;4.314;2023-03-11T15:08:26;2.17;;;1.43;;
17714;SDS011;8977;50.902;4.314;2023-03-11T15:11:01;4.83;;;1.30;;
17714;SDS011;8977;50.902;4.314;2023-03-11T15:13:30;3.43;;;1.23;;
17714;SDS011;8977;50.902;4.314;2023-03-11T15:15:58;2.63;;;1.20;;
17714;SDS011;8977;50.902;4.314;2023-03-11T15:18:27;3.17;;;1.27;;
17714;SDS011;8977;50.902;4.314;2023-03-11T15:21:00;5.53;;;1.40;;
17714;SDS011;8977;50.902;4.314;2023-03-11T15:23:29;6.10;;;1.40;;
17714;SDS011;8977;50.902;4.314;2023-03-11T15:25:57;4.17;;;1.40;;
17714;SDS011;8977;50.902;4.314;2023-03-11T15:28:27;3.97;;;1.63;;
17714;SDS011;8977;50.902;4.314;2023-03-11T15:31:14;4.60;;;1.43;;
17714;SDS011;8977;50.902;4.314;2023-03-11T15:33:42;1.93;;;1.10;;
17714;SDS011;8977;50.902;4.314;2023-03-11T15:36:28;1.40;;;1.10;;